sensor_id;sensor_type;location;lat;lon;timestamp;P1;durP1;ratioP1;P2;durP2;ratioP2
69730;SDS011;56996;48.138;11.538;2023-05-07T00:01:20;11.20;;;6.00;;
69730;SDS011;56996;48.138;11.538;2023-05-07T00:03:47;11.00;;;6.10;;
69730;SDS011;56996;48.138;11.538;2023-05-07T00:06:14;9.20;;;5.40;;
69730;SDS011;56996;48.138;11.538;2023-05-07T00:08:41;10.40;;;5.80;;
69730;SDS011;56996;48.138;11.538;2023-05-07T00:11:07;9.50;;;4.90;;
69730;SDS011;56996;48.138;11.538;2023-05-07T00:13:34;9.70;;;4.80;;
69730;SDS011;56996;48.138;11.538;2023-05-07T00:16:02;9.80;;;5.20;;
69730;SDS011;56996;48.138;11.538;2023-05-07T00:18:29;9.70;;;5.00;;
69730;SDS011;56996;48.138;11.538;2023-05-07T00:20:56;10.30;;;5.10;;
69730;SDS011;56996;48.138;11.538;2023-05-07T00:23:23;11.70;;;6.00;;
69730;SDS011;56996;48.138;11.538;2023-05-07T00:25:49;9.20;;;5.50;;
69730;SDS011;56996;48.138;11.538;2023-05-07T00:28:16;9.60;;;5.90;;
69730;SDS011;56996;48.138;11.538;2023-05-07T00:30:43;11.10;;;5.90;;
69730;SDS011;56996;48.138;11.538;2023-05-07T00:33:09;11.30;;;5.90;;
69730;SDS011;56996;48.138;11.538;2023-05-07T00:35:36;10.10;;;5.40;;
69730;SDS011;56996;48.138;11.538;2023-05-07T00:38:03;11.90;;;5.90;;
69730;SDS011;56996;48.138;11.538;2023-05-07T00:40:30;9.30;;;5.70;;
69730;SDS011;56996;48.138;11.538;2023-05-07T00:42:56;10.70;;;5.60;;
69730;SDS011;56996;48.138;11.538;2023-05-07T00:45:27;12.80;;;6.30;;
69730;SDS011;56996;48.138;11.538;2023-05-07T00:47:57;10.50;;;6.00;;
69730;SDS011;56996;48.138;11.538;2023-05-07T00:50:26;10.20;;;5.90;;
69730;SDS011;56996;48.138;11.538;2023-05-07T00:52:53;10.30;;;6.10;;
69730;SDS011;56996;48.138;11.538;2023-05-07T00:55:22;10.30;;;6.00;;
69730;SDS011;56996;48.138;11.538;2023-05-07T00:57:50;10.50;;;6.00;;
69730;SDS011;56996;48.138;11.538;2023-05-07T01:00:17;11.20;;;5.90;;
69730;SDS011;56996;48.138;11.538;2023-05-07T01:02:45;10.60;;;5.90;;
69730;SDS011;56996;48.138;11.538;2023-05-07T01:05:15;11.10;;;6.30;;
69730;SDS011;56996;48.138;11.538;2023-05-07T01:07:45;17.10;;;9.40;;
69730;SDS011;56996;48.138;11.538;2023-05-07T01:10:13;11.20;;;6.30;;
69730;SDS011;56996;48.138;11.538;2023-05-07T01:12:42;11.20;;;6.70;;
69730;SDS011;56996;48.138;11.538;2023-05-07T01:15:10;10.20;;;6.30;;
69730;SDS011;56996;48.138;11.538;2023-05-07T01:17:38;10.30;;;6.10;;
69730;SDS011;56996;48.138;11.538;2023-05-07T01:20:11;10.40;;;6.20;;
69730;SDS011;56996;48.138;11.538;2023-05-07T01:22:40;12.20;;;7.00;;
69730;SDS011;56996;48.138;11.538;2023-05-07T01:25:07;11.10;;;6.80;;
69730;SDS011;56996;48.138;11.538;2023-05-07T01:27:36;12.40;;;6.70;;
69730;SDS011;56996;48.138;11.538;2023-05-07T01:30:04;10.60;;;6.30;;
69730;SDS011;56996;48.138;11.538;2023-05-07T01:35:12;8.80;;;4.50;;
69730;SDS011;56996;48.138;11.538;2023-05-07T01:37:41;10.80;;;5.90;;
69730;SDS011;56996;48.138;11.538;2023-05-07T01:40:08;11.50;;;6.30;;
69730;SDS011;56996;48.138;11.538;2023-05-07T01:42:36;10.60;;;5.90;;
69730;SDS011;56996;48.138;11.538;2023-05-07T01:45:03;10.10;;;6.00;;
69730;SDS011;56996;48.138;11.538;2023-05-07T01:47:31;10.60;;;6.10;;
69730;SDS011;56996;48.138;11.538;2023-05-07T01:49:58;11.20;;;6.50;;
69730;SDS011;56996;48.138;11.538;2023-05-07T01:52:25;10.20;;;6.00;;
69730;SDS011;56996;48.138;11.538;2023-05-07T01:54:53;11.80;;;6.20;;
69730;SDS011;56996;48.138;11.538;2023-05-07T01:57:20;10.30;;;6.10;;
69730;SDS011;56996;48.138;11.538;2023-05-07T01:59:49;9.80;;;5.90;;
69730;SDS011;56996;48.138;11.538;2023-05-07T02:02:17;11.00;;;6.20;;
69730;SDS011;56996;48.138;11.538;2023-05-07T02:04:44;10.90;;;5.90;;
69730;SDS011;56996;48.138;11.538;2023-05-07T02:07:12;10.20;;;5.80;;
69730;SDS011;56996;48.138;11.538;2023-05-07T02:09:38;11.80;;;6.00;;
69730;SDS011;56996;48.138;11.538;2023-05-07T02:12:05;10.50;;;6.00;;
69730;SDS011;56996;48.138;11.538;2023-05-07T02:14:32;9.20;;;5.80;;
69730;SDS011;56996;48.138;11.538;2023-05-07T02:16:58;10.90;;;5.90;;
69730;SDS011;56996;48.138;11.538;2023-05-07T02:19:25;11.30;;;5.80;;
69730;SDS011;56996;48.138;11.538;2023-05-07T02:21:51;9.90;;;5.50;;
69730;SDS011;56996;48.138;11.538;2023-05-07T02:24:19;10.60;;;5.70;;
69730;SDS011;56996;48.138;11.538;2023-05-07T02:26:46;9.50;;;5.50;;
69730;SDS011;56996;48.138;11.538;2023-05-07T02:29:12;10.80;;;5.90;;
69730;SDS011;56996;48.138;11.538;2023-05-07T02:31:39;10.90;;;5.90;;
69730;SDS011;56996;48.138;11.538;2023-05-07T02:34:06;10.80;;;5.50;;
69730;SDS011;56996;48.138;11.538;2023-05-07T02:36:33;9.40;;;5.50;;
69730;SDS011;56996;48.138;11.538;2023-05-07T02:39:03;9.40;;;5.10;;
69730;SDS011;56996;48.138;11.538;2023-05-07T02:41:30;10.40;;;5.70;;
69730;SDS011;56996;48.138;11.538;2023-05-07T02:43:56;9.50;;;5.40;;
69730;SDS011;56996;48.138;11.538;2023-05-07T02:46:23;10.60;;;6.20;;
69730;SDS011;56996;48.138;11.538;2023-05-07T02:48:57;12.50;;;6.80;;
69730;SDS011;56996;48.138;11.538;2023-05-07T02:51:23;12.90;;;6.30;;
69730;SDS011;56996;48.138;11.538;2023-05-07T02:53:56;10.00;;;5.80;;
69730;SDS011;56996;48.138;11.538;2023-05-07T02:56:23;10.30;;;5.60;;
69730;SDS011;56996;48.138;11.538;2023-05-07T02:58:52;9.50;;;5.40;;
69730;SDS011;56996;48.138;11.538;2023-05-07T03:01:19;10.10;;;6.10;;
69730;SDS011;56996;48.138;11.538;2023-05-07T03:04:06;7.90;;;4.90;;
69730;SDS011;56996;48.138;11.538;2023-05-07T03:06:33;9.40;;;4.90;;
69730;SDS011;56996;48.138;11.538;2023-05-07T03:09:00;9.00;;;5.10;;
69730;SDS011;56996;48.138;11.538;2023-05-07T03:11:27;9.80;;;5.50;;
69730;SDS011;56996;48.138;11.538;2023-05-07T03:13:53;10.30;;;5.10;;
69730;SDS011;56996;48.138;11.538;2023-05-07T03:16:20;10.90;;;5.10;;
69730;SDS011;56996;48.138;11.538;2023-05-07T03:18:47;8.70;;;4.90;;
69730;SDS011;56996;48.138;11.538;2023-05-07T03:21:14;10.20;;;4.90;;
69730;SDS011;56996;48.138;11.538;2023-05-07T03:23:41;8.40;;;5.00;;
69730;SDS011;56996;48.138;11.538;2023-05-07T03:26:07;9.00;;;5.00;;
69730;SDS011;56996;48.138;11.538;2023-05-07T03:28:34;8.90;;;5.00;;
69730;SDS011;56996;48.138;11.538;2023-05-07T03:31:02;8.10;;;4.50;;
69730;SDS011;56996;48.138;11.538;2023-05-07T03:33:33;8.30;;;4.10;;
69730;SDS011;56996;48.138;11.538;2023-05-07T03:36:01;7.60;;;4.50;;
69730;SDS011;56996;48.138;11.538;2023-05-07T03:38:28;8.20;;;4.40;;
69730;SDS011;56996;48.138;11.538;2023-05-07T03:40:54;8.00;;;4.10;;
69730;SDS011;56996;48.138;11.538;2023-05-07T03:43:21;8.00;;;4.80;;
69730;SDS011;56996;48.138;11.538;2023-05-07T03:45:51;7.70;;;4.50;;
69730;SDS011;56996;48.138;11.538;2023-05-07T03:48:21;9.00;;;4.70;;
69730;SDS011;56996;48.138;11.538;2023-05-07T03:50:48;9.00;;;4.70;;
69730;SDS011;56996;48.138;11.538;2023-05-07T03:53:15;8.60;;;4.70;;
69730;SDS011;56996;48.138;11.538;2023-05-07T03:55:42;8.90;;;4.80;;
69730;SDS011;56996;48.138;11.538;2023-05-07T03:58:08;9.60;;;5.00;;
69730;SDS011;56996;48.138;11.538;2023-05-07T04:00:36;9.20;;;4.90;;
69730;SDS011;56996;48.138;11.538;2023-05-07T04:03:11;10.80;;;5.20;;
69730;SDS011;56996;48.138;11.538;2023-05-07T04:05:38;9.30;;;4.90;;
69730;SDS011;56996;48.138;11.538;2023-05-07T04:08:05;8.70;;;4.70;;
69730;SDS011;56996;48.138;11.538;2023-05-07T04:10:37;8.90;;;4.70;;
69730;SDS011;56996;48.138;11.538;2023-05-07T04:13:07;7.60;;;4.50;;
69730;SDS011;56996;48.138;11.538;2023-05-07T04:15:35;10.20;;;4.60;;
69730;SDS011;56996;48.138;11.538;2023-05-07T04:18:03;8.30;;;4.60;;
69730;SDS011;56996;48.138;11.538;2023-05-07T04:20:38;7.20;;;4.20;;
69730;SDS011;56996;48.138;11.538;2023-05-07T04:23:08;8.60;;;4.60;;
69730;SDS011;56996;48.138;11.538;2023-05-07T04:25:35;7.80;;;4.10;;
69730;SDS011;56996;48.138;11.538;2023-05-07T04:28:08;11.40;;;4.40;;
69730;SDS011;56996;48.138;11.538;2023-05-07T04:30:36;9.90;;;4.30;;
69730;SDS011;56996;48.138;11.538;2023-05-07T04:33:03;7.20;;;4.20;;
69730;SDS011;56996;48.138;11.538;2023-05-07T04:35:30;7.70;;;4.40;;
69730;SDS011;56996;48.138;11.538;2023-05-07T04:37:57;9.30;;;4.40;;
69730;SDS011;56996;48.138;11.538;2023-05-07T04:40:24;9.10;;;4.40;;
69730;SDS011;56996;48.138;11.538;2023-05-07T04:42:51;8.50;;;4.40;;
69730;SDS011;56996;48.138;11.538;2023-05-07T04:45:20;8.40;;;4.60;;
69730;SDS011;56996;48.138;11.538;2023-05-07T04:47:47;8.40;;;4.20;;
69730;SDS011;56996;48.138;11.538;2023-05-07T04:50:14;8.60;;;4.20;;
69730;SDS011;56996;48.138;11.538;2023-05-07T04:52:41;7.80;;;4.10;;
69730;SDS011;56996;48.138;11.538;2023-05-07T04:55:08;8.40;;;4.20;;
69730;SDS011;56996;48.138;11.538;2023-05-07T04:57:37;10.70;;;4.90;;
69730;SDS011;56996;48.138;11.538;2023-05-07T05:00:07;7.40;;;3.90;;
69730;SDS011;56996;48.138;11.538;2023-05-07T05:02:40;7.70;;;4.00;;
69730;SDS011;56996;48.138;11.538;2023-05-07T05:05:08;8.10;;;3.90;;
69730;SDS011;56996;48.138;11.538;2023-05-07T05:07:34;8.40;;;4.50;;
69730;SDS011;56996;48.138;11.538;2023-05-07T05:10:02;9.20;;;4.10;;
69730;SDS011;56996;48.138;11.538;2023-05-07T05:12:32;7.60;;;4.20;;
69730;SDS011;56996;48.138;11.538;2023-05-07T05:14:59;8.30;;;4.50;;
69730;SDS011;56996;48.138;11.538;2023-05-07T05:17:25;7.20;;;4.00;;
69730;SDS011;56996;48.138;11.538;2023-05-07T05:19:52;7.50;;;4.20;;
69730;SDS011;56996;48.138;11.538;2023-05-07T05:22:20;8.20;;;4.00;;
69730;SDS011;56996;48.138;11.538;2023-05-07T05:24:48;8.50;;;4.40;;
69730;SDS011;56996;48.138;11.538;2023-05-07T05:27:14;7.20;;;3.80;;
69730;SDS011;56996;48.138;11.538;2023-05-07T05:29:41;8.10;;;4.00;;
69730;SDS011;56996;48.138;11.538;2023-05-07T05:32:08;7.80;;;3.90;;
69730;SDS011;56996;48.138;11.538;2023-05-07T05:34:34;7.30;;;3.80;;
69730;SDS011;56996;48.138;11.538;2023-05-07T05:37:02;7.70;;;3.60;;
69730;SDS011;56996;48.138;11.538;2023-05-07T05:39:28;8.80;;;4.00;;
69730;SDS011;56996;48.138;11.538;2023-05-07T05:41:55;7.30;;;3.70;;
69730;SDS011;56996;48.138;11.538;2023-05-07T05:44:22;8.30;;;3.50;;
69730;SDS011;56996;48.138;11.538;2023-05-07T05:46:49;6.70;;;3.30;;
69730;SDS011;56996;48.138;11.538;2023-05-07T05:49:17;6.80;;;3.20;;
69730;SDS011;56996;48.138;11.538;2023-05-07T05:51:44;6.30;;;3.70;;
69730;SDS011;56996;48.138;11.538;2023-05-07T05:54:11;7.30;;;3.50;;
69730;SDS011;56996;48.138;11.538;2023-05-07T05:56:38;7.10;;;3.80;;
69730;SDS011;56996;48.138;11.538;2023-05-07T05:59:06;7.30;;;3.40;;
69730;SDS011;56996;48.138;11.538;2023-05-07T06:01:33;6.80;;;3.20;;
69730;SDS011;56996;48.138;11.538;2023-05-07T06:04:01;6.70;;;3.30;;
69730;SDS011;56996;48.138;11.538;2023-05-07T06:06:28;8.00;;;3.30;;
69730;SDS011;56996;48.138;11.538;2023-05-07T06:08:55;5.90;;;2.70;;
69730;SDS011;56996;48.138;11.538;2023-05-07T06:11:24;8.40;;;3.30;;
69730;SDS011;56996;48.138;11.538;2023-05-07T06:13:52;6.30;;;3.30;;
69730;SDS011;56996;48.138;11.538;2023-05-07T06:16:18;6.80;;;3.70;;
69730;SDS011;56996;48.138;11.538;2023-05-07T06:18:45;9.40;;;3.90;;
69730;SDS011;56996;48.138;11.538;2023-05-07T06:21:14;7.60;;;3.80;;
69730;SDS011;56996;48.138;11.538;2023-05-07T06:23:41;7.00;;;3.40;;
69730;SDS011;56996;48.138;11.538;2023-05-07T06:26:08;6.10;;;3.30;;
69730;SDS011;56996;48.138;11.538;2023-05-07T06:28:38;6.70;;;3.70;;
69730;SDS011;56996;48.138;11.538;2023-05-07T06:31:19;5.80;;;3.80;;
69730;SDS011;56996;48.138;11.538;2023-05-07T06:33:53;6.30;;;3.60;;
69730;SDS011;56996;48.138;11.538;2023-05-07T06:36:22;6.10;;;3.10;;
69730;SDS011;56996;48.138;11.538;2023-05-07T06:38:48;7.00;;;3.40;;
69730;SDS011;56996;48.138;11.538;2023-05-07T06:41:15;5.80;;;3.10;;
69730;SDS011;56996;48.138;11.538;2023-05-07T06:43:42;5.80;;;3.20;;
69730;SDS011;56996;48.138;11.538;2023-05-07T06:46:24;5.30;;;2.90;;
69730;SDS011;56996;48.138;11.538;2023-05-07T06:48:51;6.30;;;3.40;;
69730;SDS011;56996;48.138;11.538;2023-05-07T06:51:19;6.40;;;3.50;;
69730;SDS011;56996;48.138;11.538;2023-05-07T06:53:46;5.30;;;3.10;;
69730;SDS011;56996;48.138;11.538;2023-05-07T06:56:12;6.00;;;3.30;;
69730;SDS011;56996;48.138;11.538;2023-05-07T06:58:39;5.40;;;3.30;;
69730;SDS011;56996;48.138;11.538;2023-05-07T07:01:06;6.30;;;3.60;;
69730;SDS011;56996;48.138;11.538;2023-05-07T07:03:33;6.60;;;3.50;;
69730;SDS011;56996;48.138;11.538;2023-05-07T07:06:02;5.10;;;3.10;;
69730;SDS011;56996;48.138;11.538;2023-05-07T07:08:29;5.90;;;3.60;;
69730;SDS011;56996;48.138;11.538;2023-05-07T07:10:57;5.60;;;3.30;;
69730;SDS011;56996;48.138;11.538;2023-05-07T07:13:24;5.70;;;3.30;;
69730;SDS011;56996;48.138;11.538;2023-05-07T07:15:51;5.50;;;3.40;;
69730;SDS011;56996;48.138;11.538;2023-05-07T07:18:19;5.90;;;3.20;;
69730;SDS011;56996;48.138;11.538;2023-05-07T07:20:47;6.60;;;3.40;;
69730;SDS011;56996;48.138;11.538;2023-05-07T07:23:14;5.90;;;3.10;;
69730;SDS011;56996;48.138;11.538;2023-05-07T07:25:40;5.60;;;2.90;;
69730;SDS011;56996;48.138;11.538;2023-05-07T07:28:07;6.30;;;2.80;;
69730;SDS011;56996;48.138;11.538;2023-05-07T07:30:35;5.70;;;2.90;;
69730;SDS011;56996;48.138;11.538;2023-05-07T07:33:03;5.70;;;2.80;;
69730;SDS011;56996;48.138;11.538;2023-05-07T07:35:32;5.90;;;2.60;;
69730;SDS011;56996;48.138;11.538;2023-05-07T07:37:59;6.00;;;2.80;;
69730;SDS011;56996;48.138;11.538;2023-05-07T07:40:26;6.30;;;2.60;;
69730;SDS011;56996;48.138;11.538;2023-05-07T07:42:54;6.60;;;3.10;;
69730;SDS011;56996;48.138;11.538;2023-05-07T07:45:21;5.80;;;2.70;;
69730;SDS011;56996;48.138;11.538;2023-05-07T07:47:48;6.10;;;2.60;;
69730;SDS011;56996;48.138;11.538;2023-05-07T07:50:15;6.30;;;2.90;;
69730;SDS011;56996;48.138;11.538;2023-05-07T07:53:01;5.80;;;2.90;;
69730;SDS011;56996;48.138;11.538;2023-05-07T07:55:28;5.50;;;2.50;;
69730;SDS011;56996;48.138;11.538;2023-05-07T07:57:55;5.80;;;2.90;;
69730;SDS011;56996;48.138;11.538;2023-05-07T08:00:22;6.00;;;2.90;;
69730;SDS011;56996;48.138;11.538;2023-05-07T08:02:49;5.30;;;2.70;;
69730;SDS011;56996;48.138;11.538;2023-05-07T08:05:21;6.30;;;3.40;;
69730;SDS011;56996;48.138;11.538;2023-05-07T08:07:47;5.90;;;3.60;;
69730;SDS011;56996;48.138;11.538;2023-05-07T08:10:19;6.60;;;3.90;;
69730;SDS011;56996;48.138;11.538;2023-05-07T08:12:53;6.00;;;4.00;;
69730;SDS011;56996;48.138;11.538;2023-05-07T08:15:20;6.30;;;4.20;;
69730;SDS011;56996;48.138;11.538;2023-05-07T08:17:48;6.10;;;4.00;;
69730;SDS011;56996;48.138;11.538;2023-05-07T08:20:15;5.90;;;4.00;;
69730;SDS011;56996;48.138;11.538;2023-05-07T08:22:42;7.60;;;4.80;;
69730;SDS011;56996;48.138;11.538;2023-05-07T08:25:09;6.30;;;4.40;;
69730;SDS011;56996;48.138;11.538;2023-05-07T08:27:36;6.30;;;4.70;;
69730;SDS011;56996;48.138;11.538;2023-05-07T08:30:04;6.00;;;4.80;;
69730;SDS011;56996;48.138;11.538;2023-05-07T08:32:31;6.20;;;5.20;;
69730;SDS011;56996;48.138;11.538;2023-05-07T08:34:58;6.10;;;4.00;;
69730;SDS011;56996;48.138;11.538;2023-05-07T08:37:25;6.50;;;5.00;;
69730;SDS011;56996;48.138;11.538;2023-05-07T08:39:52;6.20;;;5.00;;
69730;SDS011;56996;48.138;11.538;2023-05-07T08:42:23;6.60;;;5.20;;
69730;SDS011;56996;48.138;11.538;2023-05-07T08:44:51;6.90;;;5.40;;
69730;SDS011;56996;48.138;11.538;2023-05-07T08:47:23;6.10;;;5.20;;
69730;SDS011;56996;48.138;11.538;2023-05-07T08:49:58;7.30;;;6.00;;
69730;SDS011;56996;48.138;11.538;2023-05-07T08:52:25;6.60;;;5.60;;
69730;SDS011;56996;48.138;11.538;2023-05-07T08:54:52;7.00;;;5.60;;
69730;SDS011;56996;48.138;11.538;2023-05-07T08:57:20;6.50;;;5.60;;
69730;SDS011;56996;48.138;11.538;2023-05-07T08:59:48;6.30;;;5.00;;
69730;SDS011;56996;48.138;11.538;2023-05-07T09:02:15;5.70;;;5.00;;
69730;SDS011;56996;48.138;11.538;2023-05-07T09:04:43;7.00;;;5.10;;
69730;SDS011;56996;48.138;11.538;2023-05-07T09:07:10;6.50;;;5.80;;
69730;SDS011;56996;48.138;11.538;2023-05-07T09:09:39;6.10;;;4.90;;
69730;SDS011;56996;48.138;11.538;2023-05-07T09:12:06;6.70;;;5.30;;
69730;SDS011;56996;48.138;11.538;2023-05-07T09:14:33;6.30;;;4.50;;
69730;SDS011;56996;48.138;11.538;2023-05-07T09:17:00;5.90;;;5.20;;
69730;SDS011;56996;48.138;11.538;2023-05-07T09:19:27;6.90;;;5.00;;
69730;SDS011;56996;48.138;11.538;2023-05-07T09:21:59;6.40;;;5.70;;
69730;SDS011;56996;48.138;11.538;2023-05-07T09:24:29;5.50;;;4.10;;
69730;SDS011;56996;48.138;11.538;2023-05-07T09:27:01;6.30;;;5.30;;
69730;SDS011;56996;48.138;11.538;2023-05-07T09:29:30;5.80;;;4.70;;
69730;SDS011;56996;48.138;11.538;2023-05-07T09:32:05;6.50;;;5.10;;
69730;SDS011;56996;48.138;11.538;2023-05-07T09:34:33;5.10;;;3.80;;
69730;SDS011;56996;48.138;11.538;2023-05-07T09:37:05;6.60;;;4.60;;
69730;SDS011;56996;48.138;11.538;2023-05-07T09:39:43;5.50;;;3.90;;
69730;SDS011;56996;48.138;11.538;2023-05-07T09:42:15;5.40;;;3.70;;
69730;SDS011;56996;48.138;11.538;2023-05-07T09:44:44;5.50;;;3.80;;
69730;SDS011;56996;48.138;11.538;2023-05-07T09:47:19;6.00;;;3.60;;
69730;SDS011;56996;48.138;11.538;2023-05-07T09:49:48;6.40;;;3.70;;
69730;SDS011;56996;48.138;11.538;2023-05-07T09:52:17;5.10;;;3.10;;
69730;SDS011;56996;48.138;11.538;2023-05-07T09:54:48;5.70;;;3.00;;
69730;SDS011;56996;48.138;11.538;2023-05-07T09:57:19;6.00;;;2.60;;
69730;SDS011;56996;48.138;11.538;2023-05-07T09:59:51;5.20;;;3.10;;
69730;SDS011;56996;48.138;11.538;2023-05-07T10:02:19;5.90;;;2.90;;
69730;SDS011;56996;48.138;11.538;2023-05-07T10:04:50;6.80;;;3.00;;
69730;SDS011;56996;48.138;11.538;2023-05-07T10:07:21;5.80;;;3.00;;
69730;SDS011;56996;48.138;11.538;2023-05-07T10:09:50;6.50;;;2.90;;
69730;SDS011;56996;48.138;11.538;2023-05-07T10:12:23;5.20;;;2.50;;
69730;SDS011;56996;48.138;11.538;2023-05-07T10:14:52;5.20;;;2.00;;
69730;SDS011;56996;48.138;11.538;2023-05-07T10:17:20;5.30;;;2.60;;
69730;SDS011;56996;48.138;11.538;2023-05-07T10:19:47;6.10;;;2.60;;
69730;SDS011;56996;48.138;11.538;2023-05-07T10:22:15;4.90;;;2.30;;
69730;SDS011;56996;48.138;11.538;2023-05-07T10:24:44;5.00;;;2.30;;
69730;SDS011;56996;48.138;11.538;2023-05-07T10:27:15;6.10;;;2.60;;
69730;SDS011;56996;48.138;11.538;2023-05-07T10:29:54;5.40;;;2.50;;
69730;SDS011;56996;48.138;11.538;2023-05-07T10:32:42;5.90;;;2.30;;
69730;SDS011;56996;48.138;11.538;2023-05-07T10:35:29;5.00;;;2.20;;
69730;SDS011;56996;48.138;11.538;2023-05-07T10:38:00;4.10;;;2.00;;
69730;SDS011;56996;48.138;11.538;2023-05-07T10:40:28;6.00;;;2.20;;
69730;SDS011;56996;48.138;11.538;2023-05-07T10:42:59;5.60;;;2.20;;
69730;SDS011;56996;48.138;11.538;2023-05-07T10:45:31;5.70;;;2.30;;
69730;SDS011;56996;48.138;11.538;2023-05-07T10:48:10;5.40;;;2.10;;
69730;SDS011;56996;48.138;11.538;2023-05-07T10:50:48;6.00;;;2.20;;
69730;SDS011;56996;48.138;11.538;2023-05-07T10:58:51;6.30;;;2.50;;
69730;SDS011;56996;48.138;11.538;2023-05-07T11:01:52;5.80;;;2.10;;
69730;SDS011;56996;48.138;11.538;2023-05-07T11:04:30;5.50;;;2.40;;
69730;SDS011;56996;48.138;11.538;2023-05-07T11:07:30;4.50;;;1.90;;
69730;SDS011;56996;48.138;11.538;2023-05-07T11:10:07;6.80;;;2.40;;
69730;SDS011;56996;48.138;11.538;2023-05-07T11:13:00;5.70;;;2.50;;
69730;SDS011;56996;48.138;11.538;2023-05-07T11:15:37;5.50;;;2.50;;
69730;SDS011;56996;48.138;11.538;2023-05-07T11:18:14;6.30;;;2.60;;
69730;SDS011;56996;48.138;11.538;2023-05-07T11:26:16;6.70;;;2.70;;
69730;SDS011;56996;48.138;11.538;2023-05-07T11:28:43;6.30;;;2.80;;
69730;SDS011;56996;48.138;11.538;2023-05-07T11:31:10;5.20;;;2.20;;
69730;SDS011;56996;48.138;11.538;2023-05-07T11:33:38;6.50;;;2.50;;
69730;SDS011;56996;48.138;11.538;2023-05-07T11:36:08;4.90;;;2.20;;
69730;SDS011;56996;48.138;11.538;2023-05-07T11:38:40;6.40;;;2.80;;
69730;SDS011;56996;48.138;11.538;2023-05-07T11:41:07;5.90;;;2.80;;
69730;SDS011;56996;48.138;11.538;2023-05-07T11:43:34;6.20;;;2.70;;
69730;SDS011;56996;48.138;11.538;2023-05-07T11:46:08;5.80;;;2.20;;
69730;SDS011;56996;48.138;11.538;2023-05-07T11:48:36;5.90;;;2.70;;
69730;SDS011;56996;48.138;11.538;2023-05-07T11:51:04;5.70;;;2.60;;
69730;SDS011;56996;48.138;11.538;2023-05-07T11:53:37;6.20;;;2.30;;
69730;SDS011;56996;48.138;11.538;2023-05-07T11:56:17;5.20;;;2.20;;
69730;SDS011;56996;48.138;11.538;2023-05-07T11:58:46;6.40;;;2.60;;
69730;SDS011;56996;48.138;11.538;2023-05-07T12:01:15;5.60;;;2.40;;
69730;SDS011;56996;48.138;11.538;2023-05-07T12:03:44;6.70;;;2.40;;
69730;SDS011;56996;48.138;11.538;2023-05-07T12:06:15;5.70;;;2.60;;
69730;SDS011;56996;48.138;11.538;2023-05-07T12:08:43;5.90;;;2.50;;
69730;SDS011;56996;48.138;11.538;2023-05-07T12:11:16;5.40;;;2.60;;
69730;SDS011;56996;48.138;11.538;2023-05-07T12:13:48;5.00;;;2.20;;
69730;SDS011;56996;48.138;11.538;2023-05-07T12:16:15;5.40;;;2.50;;
69730;SDS011;56996;48.138;11.538;2023-05-07T12:18:43;5.50;;;2.20;;
69730;SDS011;56996;48.138;11.538;2023-05-07T12:21:10;5.60;;;2.40;;
69730;SDS011;56996;48.138;11.538;2023-05-07T12:23:38;6.10;;;2.40;;
69730;SDS011;56996;48.138;11.538;2023-05-07T12:26:05;5.30;;;2.30;;
69730;SDS011;56996;48.138;11.538;2023-05-07T12:28:37;5.50;;;2.40;;
69730;SDS011;56996;48.138;11.538;2023-05-07T12:31:05;5.90;;;2.60;;
69730;SDS011;56996;48.138;11.538;2023-05-07T12:33:34;6.10;;;2.30;;
69730;SDS011;56996;48.138;11.538;2023-05-07T12:36:06;4.40;;;2.00;;
69730;SDS011;56996;48.138;11.538;2023-05-07T12:38:37;5.00;;;2.40;;
69730;SDS011;56996;48.138;11.538;2023-05-07T12:41:06;5.20;;;2.30;;
69730;SDS011;56996;48.138;11.538;2023-05-07T12:43:34;5.40;;;2.30;;
69730;SDS011;56996;48.138;11.538;2023-05-07T12:46:04;5.60;;;2.30;;
69730;SDS011;56996;48.138;11.538;2023-05-07T12:48:33;4.30;;;1.80;;
69730;SDS011;56996;48.138;11.538;2023-05-07T12:51:01;5.30;;;2.30;;
69730;SDS011;56996;48.138;11.538;2023-05-07T12:53:29;5.50;;;2.10;;
69730;SDS011;56996;48.138;11.538;2023-05-07T12:55:58;5.80;;;2.20;;
69730;SDS011;56996;48.138;11.538;2023-05-07T12:58:30;6.90;;;2.30;;
69730;SDS011;56996;48.138;11.538;2023-05-07T13:01:03;5.50;;;2.00;;
69730;SDS011;56996;48.138;11.538;2023-05-07T13:03:33;6.00;;;2.30;;
69730;SDS011;56996;48.138;11.538;2023-05-07T13:06:06;5.00;;;2.10;;
69730;SDS011;56996;48.138;11.538;2023-05-07T13:08:40;5.20;;;2.10;;
69730;SDS011;56996;48.138;11.538;2023-05-07T13:11:10;4.60;;;1.90;;
69730;SDS011;56996;48.138;11.538;2023-05-07T13:13:39;5.60;;;2.00;;
69730;SDS011;56996;48.138;11.538;2023-05-07T13:16:08;4.90;;;2.00;;
69730;SDS011;56996;48.138;11.538;2023-05-07T13:18:39;5.70;;;2.00;;
69730;SDS011;56996;48.138;11.538;2023-05-07T13:21:07;6.20;;;2.00;;
69730;SDS011;56996;48.138;11.538;2023-05-07T13:23:34;5.30;;;1.90;;
69730;SDS011;56996;48.138;11.538;2023-05-07T13:26:01;6.60;;;2.40;;
69730;SDS011;56996;48.138;11.538;2023-05-07T13:28:36;5.50;;;2.00;;
69730;SDS011;56996;48.138;11.538;2023-05-07T13:31:03;5.10;;;1.90;;
69730;SDS011;56996;48.138;11.538;2023-05-07T13:33:30;4.70;;;1.80;;
69730;SDS011;56996;48.138;11.538;2023-05-07T13:35:57;5.10;;;1.90;;
69730;SDS011;56996;48.138;11.538;2023-05-07T13:38:24;5.50;;;2.10;;
69730;SDS011;56996;48.138;11.538;2023-05-07T13:40:50;4.80;;;1.80;;
69730;SDS011;56996;48.138;11.538;2023-05-07T13:43:17;5.40;;;1.90;;
69730;SDS011;56996;48.138;11.538;2023-05-07T13:45:45;4.50;;;1.70;;
69730;SDS011;56996;48.138;11.538;2023-05-07T13:48:11;5.30;;;1.90;;
69730;SDS011;56996;48.138;11.538;2023-05-07T13:50:38;4.70;;;1.90;;
69730;SDS011;56996;48.138;11.538;2023-05-07T13:53:05;4.90;;;1.80;;
69730;SDS011;56996;48.138;11.538;2023-05-07T13:55:31;6.00;;;2.10;;
69730;SDS011;56996;48.138;11.538;2023-05-07T13:58:00;5.30;;;1.80;;
69730;SDS011;56996;48.138;11.538;2023-05-07T14:00:32;5.00;;;2.20;;
69730;SDS011;56996;48.138;11.538;2023-05-07T14:02:59;4.40;;;1.80;;
69730;SDS011;56996;48.138;11.538;2023-05-07T14:05:26;5.00;;;1.80;;
69730;SDS011;56996;48.138;11.538;2023-05-07T14:07:57;5.00;;;2.10;;
69730;SDS011;56996;48.138;11.538;2023-05-07T14:10:24;4.70;;;1.70;;
69730;SDS011;56996;48.138;11.538;2023-05-07T14:12:51;7.00;;;2.00;;
69730;SDS011;56996;48.138;11.538;2023-05-07T14:15:19;4.90;;;2.00;;
69730;SDS011;56996;48.138;11.538;2023-05-07T14:17:46;4.50;;;1.70;;
69730;SDS011;56996;48.138;11.538;2023-05-07T14:20:13;5.90;;;2.20;;
69730;SDS011;56996;48.138;11.538;2023-05-07T14:22:40;5.80;;;2.00;;
69730;SDS011;56996;48.138;11.538;2023-05-07T14:25:08;5.90;;;2.10;;
69730;SDS011;56996;48.138;11.538;2023-05-07T14:27:36;5.40;;;1.90;;
69730;SDS011;56996;48.138;11.538;2023-05-07T14:30:03;5.00;;;2.10;;
69730;SDS011;56996;48.138;11.538;2023-05-07T14:32:30;5.00;;;2.00;;
69730;SDS011;56996;48.138;11.538;2023-05-07T14:34:56;5.40;;;2.20;;
69730;SDS011;56996;48.138;11.538;2023-05-07T14:37:23;5.70;;;2.40;;
69730;SDS011;56996;48.138;11.538;2023-05-07T14:39:50;5.20;;;2.10;;
69730;SDS011;56996;48.138;11.538;2023-05-07T14:42:17;4.70;;;2.10;;
69730;SDS011;56996;48.138;11.538;2023-05-07T14:44:44;5.40;;;2.10;;
69730;SDS011;56996;48.138;11.538;2023-05-07T14:47:13;4.70;;;2.20;;
69730;SDS011;56996;48.138;11.538;2023-05-07T14:49:39;5.80;;;2.20;;
69730;SDS011;56996;48.138;11.538;2023-05-07T14:52:07;4.70;;;2.30;;
69730;SDS011;56996;48.138;11.538;2023-05-07T14:54:37;4.70;;;2.00;;
69730;SDS011;56996;48.138;11.538;2023-05-07T14:57:05;5.80;;;2.20;;